createdAt,value
2023-02-24T00:02:06.764Z,98429.82
2023-02-24T00:08:01.454Z,98418.30
2023-02-24T00:13:47.000Z,98413.21
2023-02-24T00:19:30.106Z,98405.02
2023-02-24T00:25:06.015Z,98402.92
2023-02-24T00:30:40.116Z,98402.43
2023-02-24T00:36:53.529Z,98393.33
2023-02-24T00:42:28.768Z,98386.61
2023-02-24T00:48:55.116Z,98374.69
2023-02-24T01:02:11.854Z,98363.46
2023-02-24T01:08:21.786Z,98354.70
2023-02-24T01:14:26.543Z,98345.77
2023-02-24T01:19:34.805Z,98340.85
2023-02-24T01:25:32.509Z,98338.19
2023-02-24T01:31:39.719Z,98334.48
2023-02-24T01:37:32.260Z,98327.08
2023-02-24T01:43:15.608Z,98322.42
2023-02-24T01:48:41.914Z,98316.72
2023-02-24T01:55:10.536Z,98314.77
2023-02-24T02:01:21.022Z,98305.92
2023-02-24T02:07:57.630Z,98300.44
2023-02-24T02:13:36.290Z,98293.89
2023-02-24T02:19:55.961Z,98295.04
2023-02-24T02:26:12.824Z,98286.80
2023-02-24T02:32:46.447Z,98278.45
2023-02-24T02:38:28.686Z,98272.75
2023-02-24T02:44:22.454Z,98272.64
2023-02-24T02:50:25.798Z,98262.23
2023-02-24T03:02:34.608Z,98251.91
2023-02-24T03:08:43.688Z,98248.36
2023-02-24T03:13:56.136Z,98246.88
2023-02-24T03:19:45.723Z,98247.92
2023-02-24T03:25:43.145Z,98240.98
2023-02-24T03:31:35.672Z,98237.52
2023-02-24T03:37:35.945Z,98229.23
2023-02-24T03:43:18.335Z,98220.67
2023-02-24T03:49:12.881Z,98214.45
2023-02-24T03:55:16.915Z,98207.19
2023-02-24T04:01:02.644Z,98203.64
2023-02-24T04:07:05.892Z,98190.70
2023-02-24T04:13:04.807Z,98183.25
2023-02-24T04:25:18.829Z,98164.17
2023-02-24T04:31:43.237Z,98154.94
2023-02-24T04:37:45.462Z,98153.71
2023-02-24T04:43:25.679Z,98148.45
2023-02-24T04:50:12.720Z,98141.44
2023-02-24T04:56:04.494Z,98134.25
2023-02-24T05:01:46.188Z,98127.13
2023-02-24T05:07:35.711Z,98121.77
2023-02-24T05:14:09.073Z,98114.33
2023-02-24T05:20:38.326Z,98109.61
2023-02-24T05:25:44.998Z,98102.92
2023-02-24T05:31:30.287Z,98100.41
2023-02-24T05:37:27.517Z,98097.13
2023-02-24T05:42:58.536Z,98095.02
2023-02-24T05:48:24.726Z,98094.02
2023-02-24T05:54:25.363Z,98087.79
2023-02-24T06:00:22.980Z,98083.70
2023-02-24T06:06:27.445Z,98086.41
2023-02-24T06:12:31.738Z,98075.10
2023-02-24T06:18:12.056Z,98068.95
2023-02-24T06:24:28.655Z,98060.92
2023-02-24T06:30:08.562Z,98059.52
2023-02-24T06:35:46.851Z,98054.86
2023-02-24T06:41:55.681Z,98049.51
2023-02-24T06:47:29.100Z,98043.27
2023-02-24T06:52:46.297Z,98040.19
2023-02-24T06:57:57.693Z,98037.13
2023-02-24T07:03:26.148Z,98032.70
2023-02-24T07:09:24.674Z,98030.93
2023-02-24T07:15:12.748Z,98028.39
2023-02-24T07:20:52.114Z,98022.68
2023-02-24T07:26:30.724Z,98018.40
2023-02-24T07:32:10.551Z,98015.37
2023-02-24T07:38:35.436Z,98003.58
2023-02-24T07:44:07.825Z,97998.69
2023-02-24T07:50:21.762Z,97990.14
2023-02-24T07:55:46.776Z,97984.02
2023-02-24T08:01:09.012Z,97979.96
2023-02-24T08:07:18.397Z,97976.02
2023-02-24T08:13:19.653Z,97973.77
2023-02-24T08:19:43.034Z,97970.77
2023-02-24T08:25:46.806Z,97964.73
2023-02-24T08:32:02.560Z,97952.58
2023-02-24T08:37:47.137Z,97947.41
2023-02-24T08:43:50.985Z,97946.23
2023-02-24T08:50:06.926Z,97937.36
2023-02-24T08:56:20.094Z,97931.90
2023-02-24T09:02:09.296Z,97930.27
2023-02-24T09:08:08.983Z,97927.10
2023-02-24T09:14:24.665Z,97920.77
2023-02-24T09:20:43.402Z,97915.05
2023-02-24T09:26:18.229Z,97907.16
2023-02-24T09:32:13.251Z,97899.98
2023-02-24T09:38:00.565Z,97895.64
2023-02-24T09:43:56.481Z,97894.81
2023-02-24T09:50:03.520Z,97887.43
2023-02-24T09:56:11.770Z,97879.67
2023-02-24T10:02:20.508Z,97872.91
2023-02-24T10:08:07.799Z,97869.42
2023-02-24T10:14:18.661Z,97869.05
2023-02-24T10:19:35.970Z,97869.88
2023-02-24T10:25:28.682Z,97865.16
2023-02-24T10:31:47.203Z,97858.51
2023-02-24T10:38:15.307Z,97851.95
2023-02-24T10:44:17.344Z,97838.87
2023-02-24T10:49:51.036Z,97823.79
2023-02-24T10:55:19.240Z,97811.93
2023-02-24T11:01:22.900Z,97799.27
2023-02-24T11:07:01.033Z,97789.33
2023-02-24T11:13:08.002Z,97774.45
2023-02-24T11:19:05.475Z,97764.80
2023-02-24T11:25:29.791Z,97753.92
2023-02-24T11:31:43.075Z,97739.79
2023-02-24T11:38:09.333Z,97727.07
2023-02-24T11:44:18.733Z,97717.10
2023-02-24T11:49:55.715Z,97702.38
2023-02-24T11:55:34.955Z,97692.80
2023-02-24T12:01:59.468Z,97674.25
2023-02-24T13:02:52.396Z,97610.46
2023-02-24T13:09:02.143Z,97602.81
2023-02-24T13:15:19.337Z,97599.39
2023-02-24T13:21:02.507Z,97603.93
2023-02-24T13:26:33.781Z,97608.70
2023-02-24T13:31:50.438Z,97594.14
2023-02-24T13:38:19.627Z,97593.16
2023-02-24T13:44:00.091Z,97584.09
2023-02-24T13:50:36.543Z,97576.84
2023-02-24T13:56:09.262Z,97555.85
2023-02-24T14:02:40.593Z,97560.10
2023-02-24T14:08:36.514Z,97556.45
2023-02-24T14:15:00.947Z,97547.17
2023-02-24T14:20:28.564Z,97541.06
2023-02-24T14:26:12.894Z,97537.49
2023-02-24T14:31:31.671Z,97533.92
2023-02-24T14:38:34.839Z,97524.05
2023-02-24T14:45:23.074Z,97498.48
2023-02-24T14:51:50.220Z,97484.92
2023-02-24T14:57:13.613Z,97476.33
2023-02-24T15:02:29.484Z,97464.80
2023-02-24T15:08:35.084Z,97461.50
2023-02-24T15:14:50.273Z,97463.97
2023-02-24T15:21:07.761Z,97451.23
2023-02-24T15:27:35.204Z,97449.39
2023-02-24T15:33:42.121Z,97454.88
2023-02-24T15:39:03.021Z,97471.04
2023-02-24T15:45:27.206Z,97459.88
2023-02-24T15:51:51.756Z,97474.42
2023-02-24T16:03:33.706Z,97464.43
2023-02-24T16:09:56.085Z,97453.68
2023-02-24T16:16:33.101Z,97436.29
2023-02-24T16:22:51.064Z,97424.73
2023-02-24T16:28:56.764Z,97417.06
2023-02-24T16:35:04.852Z,97421.98
2023-02-24T16:41:22.661Z,97425.90
2023-02-24T16:47:35.995Z,97411.34
2023-02-24T16:53:44.408Z,97401.59
2023-02-24T16:58:54.623Z,97406.39
2023-02-24T17:04:49.069Z,97399.45
2023-02-24T17:10:26.883Z,97386.48
2023-02-24T17:15:41.300Z,97387.95
2023-02-24T17:21:11.248Z,97384.17
2023-02-24T17:27:12.116Z,97380.95
2023-02-24T17:33:05.200Z,97375.70
2023-02-24T17:38:43.723Z,97366.92
2023-02-24T17:44:49.147Z,97358.80
2023-02-24T17:50:13.551Z,97349.25
2023-02-24T17:55:31.683Z,97342.77
2023-02-24T18:00:35.396Z,97339.99
2023-02-24T18:06:21.093Z,97328.59
2023-02-24T18:11:38.203Z,97318.72
2023-02-24T18:16:42.152Z,97313.14
2023-02-24T18:22:29.623Z,97310.27
2023-02-24T18:28:12.457Z,97299.02
2023-02-24T18:34:05.597Z,97295.66
2023-02-24T18:40:00.855Z,97291.70
2023-02-24T18:45:34.331Z,97289.27
2023-02-24T18:51:00.002Z,97282.09
2023-02-24T18:56:50.733Z,97281.59
2023-02-24T19:02:47.594Z,97279.85
2023-02-24T19:14:00.035Z,97258.90
2023-02-24T19:19:23.035Z,97260.75
2023-02-24T19:24:46.182Z,97265.67
2023-02-24T19:30:55.355Z,97258.33
2023-02-24T19:37:00.849Z,97239.11
2023-02-24T19:42:48.829Z,97226.06
2023-02-24T19:48:12.084Z,97217.70
2023-02-24T19:54:19.212Z,97209.27
2023-02-24T20:02:44.884Z,97190.03
2023-02-24T20:08:00.741Z,97183.83
2023-02-24T20:13:05.856Z,97177.89
2023-02-24T20:18:12.329Z,97162.09
2023-02-24T20:23:46.300Z,97159.16
2023-02-24T20:29:33.366Z,97147.67
2023-02-24T20:35:06.244Z,97136.19
2023-02-24T20:41:11.497Z,97128.96
2023-02-24T20:46:37.798Z,97117.27
2023-02-24T20:51:45.361Z,97107.09
2023-02-24T20:57:50.299Z,97083.42
2023-02-24T21:03:56.075Z,97062.33
2023-02-24T21:09:40.186Z,97063.55
2023-02-24T21:14:46.947Z,97072.13
2023-02-24T21:20:48.695Z,97059.02
2023-02-24T21:26:56.043Z,97051.87
2023-02-24T21:32:22.830Z,97038.60
2023-02-24T21:38:41.147Z,97026.88
2023-02-24T21:44:30.641Z,97011.20
2023-02-24T21:49:47.385Z,96993.15
2023-02-24T21:55:24.107Z,96978.00
2023-02-24T22:00:43.797Z,96967.42
2023-02-24T23:10:52.253Z,96933.92
2023-02-24T23:13:28.567Z,96913.74
2023-02-24T23:19:34.888Z,96906.05
2023-02-24T23:25:51.974Z,96890.95
2023-02-24T23:31:20.365Z,96886.30
2023-02-24T23:37:24.665Z,96882.80
2023-02-24T23:43:16.291Z,96892.91
